sensor_id;sensor_type;location;lat;lon;timestamp;pressure;altitude;pressure_sealevel;temperature;humidity
76637;BME280;65532;52.124;5.480;2024-03-02T00:01:40;99777.91;;;8.46;89.15
76637;BME280;65532;52.124;5.480;2024-03-02T00:04:07;99778.16;;;8.44;89.32
76637;BME280;65532;52.124;5.480;2024-03-02T00:06:34;99774.38;;;8.45;89.69
76637;BME280;65532;52.124;5.480;2024-03-02T00:09:01;99764.97;;;8.48;89.76
76637;BME280;65532;52.124;5.480;2024-03-02T00:11:27;99785.00;;;8.52;89.61
76637;BME280;65532;52.124;5.480;2024-03-02T00:13:54;99789.59;;;8.51;89.50
76637;BME280;65532;52.124;5.480;2024-03-02T00:16:21;99782.31;;;8.52;89.77
76637;BME280;65532;52.124;5.480;2024-03-02T00:18:47;99795.22;;;8.50;89.50
76637;BME280;65532;52.124;5.480;2024-03-02T00:21:14;99795.56;;;8.53;89.75
76637;BME280;65532;52.124;5.480;2024-03-02T00:23:43;99799.34;;;8.52;89.60
76637;BME280;65532;52.124;5.480;2024-03-02T00:26:11;99818.78;;;8.54;89.86
76637;BME280;65532;52.124;5.480;2024-03-02T00:28:39;99810.13;;;8.52;89.81
76637;BME280;65532;52.124;5.480;2024-03-02T00:31:11;99822.19;;;8.50;89.84
76637;BME280;65532;52.124;5.480;2024-03-02T00:33:42;99834.78;;;8.44;90.49
76637;BME280;65532;52.124;5.480;2024-03-02T00:36:11;99833.63;;;8.40;90.59
76637;BME280;65532;52.124;5.480;2024-03-02T00:38:44;99839.53;;;8.37;90.79
76637;BME280;65532;52.124;5.480;2024-03-02T00:41:32;99854.50;;;8.33;91.17
76637;BME280;65532;52.124;5.480;2024-03-02T00:44:01;99858.75;;;8.29;91.53
76637;BME280;65532;52.124;5.480;2024-03-02T00:46:29;99872.81;;;8.31;91.72
76637;BME280;65532;52.124;5.480;2024-03-02T00:48:58;99892.16;;;8.28;91.87
76637;BME280;65532;52.124;5.480;2024-03-02T00:51:34;99897.56;;;8.28;92.53
76637;BME280;65532;52.124;5.480;2024-03-02T00:54:05;99889.47;;;8.28;92.89
76637;BME280;65532;52.124;5.480;2024-03-02T00:56:32;99892.06;;;8.23;93.34
76637;BME280;65532;52.124;5.480;2024-03-02T00:59:01;99895.47;;;8.18;94.69
76637;BME280;65532;52.124;5.480;2024-03-02T01:01:27;99886.47;;;8.13;95.07
76637;BME280;65532;52.124;5.480;2024-03-02T01:03:54;99886.13;;;8.09;95.76
76637;BME280;65532;52.124;5.480;2024-03-02T01:06:21;99892.44;;;8.03;96.02
76637;BME280;65532;52.124;5.480;2024-03-02T01:08:49;99894.72;;;7.94;97.21
76637;BME280;65532;52.124;5.480;2024-03-02T01:11:18;99900.00;;;7.89;98.33
76637;BME280;65532;52.124;5.480;2024-03-02T01:13:45;99899.88;;;7.84;98.34
76637;BME280;65532;52.124;5.480;2024-03-02T01:16:12;99893.31;;;7.80;98.86
76637;BME280;65532;52.124;5.480;2024-03-02T01:18:39;99905.63;;;7.76;99.47
76637;BME280;65532;52.124;5.480;2024-03-02T01:21:06;99897.66;;;7.69;99.92
76637;BME280;65532;52.124;5.480;2024-03-02T01:23:32;99905.28;;;7.61;100.00
76637;BME280;65532;52.124;5.480;2024-03-02T01:25:59;99899.19;;;7.54;100.00
76637;BME280;65532;52.124;5.480;2024-03-02T01:28:25;99894.75;;;7.47;100.00
76637;BME280;65532;52.124;5.480;2024-03-02T01:30:52;99915.22;;;7.37;100.00
76637;BME280;65532;52.124;5.480;2024-03-02T01:33:19;99910.44;;;7.27;100.00
76637;BME280;65532;52.124;5.480;2024-03-02T01:35:46;99913.81;;;7.22;100.00
76637;BME280;65532;52.124;5.480;2024-03-02T01:38:13;99911.59;;;7.19;100.00
76637;BME280;65532;52.124;5.480;2024-03-02T01:40:39;99912.88;;;7.17;100.00
76637;BME280;65532;52.124;5.480;2024-03-02T01:43:06;99900.94;;;7.13;100.00
76637;BME280;65532;52.124;5.480;2024-03-02T01:45:34;99894.97;;;7.11;100.00
76637;BME280;65532;52.124;5.480;2024-03-02T01:48:02;99902.44;;;7.09;100.00
76637;BME280;65532;52.124;5.480;2024-03-02T01:50:31;99904.53;;;7.07;100.00
76637;BME280;65532;52.124;5.480;2024-03-02T01:52:59;99905.81;;;7.04;100.00
76637;BME280;65532;52.124;5.480;2024-03-02T01:55:26;99912.50;;;7.02;100.00
76637;BME280;65532;52.124;5.480;2024-03-02T01:57:53;99912.50;;;7.02;100.00
76637;BME280;65532;52.124;5.480;2024-03-02T02:00:21;99906.75;;;6.98;100.00
76637;BME280;65532;52.124;5.480;2024-03-02T02:02:48;99909.69;;;6.97;100.00
76637;BME280;65532;52.124;5.480;2024-03-02T02:05:15;99907.22;;;6.95;100.00
76637;BME280;65532;52.124;5.480;2024-03-02T02:07:42;99913.03;;;6.92;100.00
76637;BME280;65532;52.124;5.480;2024-03-02T02:10:12;99906.25;;;6.89;100.00
76637;BME280;65532;52.124;5.480;2024-03-02T02:12:38;99904.63;;;6.88;100.00
76637;BME280;65532;52.124;5.480;2024-03-02T02:17:50;99928.72;;;6.83;100.00
76637;BME280;65532;52.124;5.480;2024-03-02T02:20:17;99915.72;;;6.80;100.00
76637;BME280;65532;52.124;5.480;2024-03-02T02:25:24;99920.38;;;6.73;100.00
76637;BME280;65532;52.124;5.480;2024-03-02T02:27:51;99919.19;;;6.69;100.00
76637;BME280;65532;52.124;5.480;2024-03-02T02:30:31;99908.50;;;6.63;100.00
76637;BME280;65532;52.124;5.480;2024-03-02T02:32:58;99906.50;;;6.58;100.00
76637;BME280;65532;52.124;5.480;2024-03-02T02:35:25;99906.97;;;6.55;100.00
76637;BME280;65532;52.124;5.480;2024-03-02T02:37:53;99903.94;;;6.51;100.00
76637;BME280;65532;52.124;5.480;2024-03-02T02:40:20;99913.88;;;6.51;100.00
76637;BME280;65532;52.124;5.480;2024-03-02T02:42:47;99909.97;;;6.47;100.00
76637;BME280;65532;52.124;5.480;2024-03-02T02:45:14;99924.69;;;6.44;100.00
76637;BME280;65532;52.124;5.480;2024-03-02T02:47:42;99914.16;;;6.43;100.00
76637;BME280;65532;52.124;5.480;2024-03-02T02:50:10;99918.94;;;6.41;100.00
76637;BME280;65532;52.124;5.480;2024-03-02T02:52:39;99929.13;;;6.39;100.00
76637;BME280;65532;52.124;5.480;2024-03-02T02:55:08;99924.66;;;6.33;100.00
76637;BME280;65532;52.124;5.480;2024-03-02T02:57:35;99906.28;;;6.29;100.00
76637;BME280;65532;52.124;5.480;2024-03-02T03:00:08;99929.88;;;6.27;100.00
76637;BME280;65532;52.124;5.480;2024-03-02T03:02:48;99923.91;;;6.25;100.00
76637;BME280;65532;52.124;5.480;2024-03-02T03:05:17;99928.69;;;6.23;100.00
76637;BME280;65532;52.124;5.480;2024-03-02T03:07:44;99930.78;;;6.21;100.00
76637;BME280;65532;52.124;5.480;2024-03-02T03:10:12;99917.34;;;6.21;100.00
76637;BME280;65532;52.124;5.480;2024-03-02T03:12:39;99919.44;;;6.19;100.00
76637;BME280;65532;52.124;5.480;2024-03-02T03:15:07;99925.88;;;6.18;100.00
76637;BME280;65532;52.124;5.480;2024-03-02T03:17:35;99920.72;;;6.17;100.00
76637;BME280;65532;52.124;5.480;2024-03-02T03:20:03;99928.38;;;6.13;100.00
76637;BME280;65532;52.124;5.480;2024-03-02T03:22:30;99931.06;;;6.13;100.00
76637;BME280;65532;52.124;5.480;2024-03-02T03:25:01;99927.78;;;6.11;100.00
76637;BME280;65532;52.124;5.480;2024-03-02T03:27:28;99933.41;;;6.10;100.00
76637;BME280;65532;52.124;5.480;2024-03-02T03:29:54;99928.25;;;6.08;100.00
76637;BME280;65532;52.124;5.480;2024-03-02T03:32:21;99939.00;;;6.08;100.00
76637;BME280;65532;52.124;5.480;2024-03-02T03:34:48;99945.41;;;6.07;100.00
76637;BME280;65532;52.124;5.480;2024-03-02T03:37:15;99934.66;;;6.07;100.00
76637;BME280;65532;52.124;5.480;2024-03-02T03:39:42;99934.06;;;6.05;100.00
76637;BME280;65532;52.124;5.480;2024-03-02T03:42:08;99939.91;;;6.02;100.00
76637;BME280;65532;52.124;5.480;2024-03-02T03:44:35;99942.59;;;6.02;100.00
76637;BME280;65532;52.124;5.480;2024-03-02T03:47:01;99936.81;;;5.98;100.00
76637;BME280;65532;52.124;5.480;2024-03-02T03:49:29;99936.00;;;5.98;100.00
76637;BME280;65532;52.124;5.480;2024-03-02T03:51:55;99953.16;;;5.97;100.00
76637;BME280;65532;52.124;5.480;2024-03-02T03:54:22;99952.13;;;5.98;100.00
76637;BME280;65532;52.124;5.480;2024-03-02T03:56:48;99949.00;;;6.01;100.00
76637;BME280;65532;52.124;5.480;2024-03-02T03:59:15;99947.97;;;6.02;100.00
76637;BME280;65532;52.124;5.480;2024-03-02T04:01:41;99950.66;;;6.02;100.00
76637;BME280;65532;52.124;5.480;2024-03-02T04:04:08;99936.75;;;6.05;100.00
76637;BME280;65532;52.124;5.480;2024-03-02T04:06:34;99943.53;;;6.08;100.00
76637;BME280;65532;52.124;5.480;2024-03-02T04:09:01;99949.28;;;6.11;100.00
76637;BME280;65532;52.124;5.480;2024-03-02T04:11:27;99944.72;;;6.12;100.00
76637;BME280;65532;52.124;5.480;2024-03-02T04:13:54;99954.00;;;6.16;100.00
76637;BME280;65532;52.124;5.480;2024-03-02T04:16:24;99952.16;;;6.16;100.00
76637;BME280;65532;52.124;5.480;2024-03-02T04:18:50;99955.84;;;6.15;100.00
76637;BME280;65532;52.124;5.480;2024-03-02T04:21:17;99966.19;;;6.18;100.00
76637;BME280;65532;52.124;5.480;2024-03-02T04:23:43;99960.81;;;6.18;100.00
76637;BME280;65532;52.124;5.480;2024-03-02T04:26:10;99958.69;;;6.20;100.00
76637;BME280;65532;52.124;5.480;2024-03-02T04:28:36;99962.44;;;6.19;100.00
76637;BME280;65532;52.124;5.480;2024-03-02T04:31:03;99959.75;;;6.19;100.00
76637;BME280;65532;52.124;5.480;2024-03-02T04:33:30;99957.06;;;6.19;100.00
76637;BME280;65532;52.124;5.480;2024-03-02T04:35:56;99954.59;;;6.18;100.00
76637;BME280;65532;52.124;5.480;2024-03-02T04:38:24;99967.81;;;6.19;100.00
76637;BME280;65532;52.124;5.480;2024-03-02T04:40:50;99967.81;;;6.19;100.00
76637;BME280;65532;52.124;5.480;2024-03-02T04:43:17;99973.19;;;6.19;100.00
76637;BME280;65532;52.124;5.480;2024-03-02T04:45:44;99980.78;;;6.22;100.00
76637;BME280;65532;52.124;5.480;2024-03-02T04:48:11;99973.78;;;6.21;100.00
76637;BME280;65532;52.124;5.480;2024-03-02T04:50:37;99981.84;;;6.21;100.00
76637;BME280;65532;52.124;5.480;2024-03-02T04:53:04;99983.47;;;6.22;100.00
76637;BME280;65532;52.124;5.480;2024-03-02T04:55:30;99983.25;;;6.24;100.00
76637;BME280;65532;52.124;5.480;2024-03-02T04:58:06;99992.97;;;6.25;100.00
76637;BME280;65532;52.124;5.480;2024-03-02T05:00:35;100000.44;;;6.23;100.00
76637;BME280;65532;52.124;5.480;2024-03-02T05:03:02;99997.97;;;6.21;100.00
76637;BME280;65532;52.124;5.480;2024-03-02T05:05:29;99996.09;;;6.22;100.00
76637;BME280;65532;52.124;5.480;2024-03-02T05:07:55;99986.16;;;6.22;100.00
76637;BME280;65532;52.124;5.480;2024-03-02T05:10:22;99995.88;;;6.23;100.00
76637;BME280;65532;52.124;5.480;2024-03-02T05:12:48;100002.88;;;6.24;100.00
76637;BME280;65532;52.124;5.480;2024-03-02T05:15:27;100008.25;;;6.24;100.00
76637;BME280;65532;52.124;5.480;2024-03-02T05:17:53;100003.72;;;6.25;100.00
76637;BME280;65532;52.124;5.480;2024-03-02T05:20:20;100003.72;;;6.25;100.00
76637;BME280;65532;52.124;5.480;2024-03-02T05:22:47;100001.63;;;6.27;100.00
76637;BME280;65532;52.124;5.480;2024-03-02T05:25:13;100004.53;;;6.25;100.00
76637;BME280;65532;52.124;5.480;2024-03-02T05:27:40;99999.16;;;6.25;100.00
76637;BME280;65532;52.124;5.480;2024-03-02T05:30:07;100006.16;;;6.26;100.00
76637;BME280;65532;52.124;5.480;2024-03-02T05:32:33;100005.72;;;6.29;100.00
76637;BME280;65532;52.124;5.480;2024-03-02T05:35:00;100003.03;;;6.29;100.00
76637;BME280;65532;52.124;5.480;2024-03-02T05:37:27;100004.06;;;6.28;100.00
76637;BME280;65532;52.124;5.480;2024-03-02T05:39:53;100005.72;;;6.29;100.00
76637;BME280;65532;52.124;5.480;2024-03-02T05:42:20;100005.72;;;6.29;100.00
76637;BME280;65532;52.124;5.480;2024-03-02T05:44:46;100007.81;;;6.27;100.00
76637;BME280;65532;52.124;5.480;2024-03-02T05:47:13;100005.56;;;6.24;100.00
76637;BME280;65532;52.124;5.480;2024-03-02T05:49:40;99999.00;;;6.20;100.00
76637;BME280;65532;52.124;5.480;2024-03-02T05:52:06;100008.34;;;6.18;100.00
76637;BME280;65532;52.124;5.480;2024-03-02T05:54:33;100007.94;;;6.14;100.00
76637;BME280;65532;52.124;5.480;2024-03-02T05:57:00;100005.13;;;6.09;100.00
76637;BME280;65532;52.124;5.480;2024-03-02T05:59:43;100024.97;;;6.08;100.00
76637;BME280;65532;52.124;5.480;2024-03-02T06:02:12;100024.97;;;6.08;100.00
76637;BME280;65532;52.124;5.480;2024-03-02T06:04:39;100028.72;;;6.07;100.00
76637;BME280;65532;52.124;5.480;2024-03-02T06:07:06;100035.13;;;6.06;100.00
76637;BME280;65532;52.124;5.480;2024-03-02T06:09:32;100037.81;;;6.06;100.00
76637;BME280;65532;52.124;5.480;2024-03-02T06:11:59;100029.97;;;6.05;100.00
76637;BME280;65532;52.124;5.480;2024-03-02T06:14:25;100032.88;;;6.03;100.00
76637;BME280;65532;52.124;5.480;2024-03-02T06:16:52;100034.34;;;5.99;100.00
76637;BME280;65532;52.124;5.480;2024-03-02T06:19:19;100042.84;;;5.96;100.00
76637;BME280;65532;52.124;5.480;2024-03-02T06:21:45;100041.66;;;5.92;100.00
76637;BME280;65532;52.124;5.480;2024-03-02T06:24:11;100048.72;;;5.86;100.00
76637;BME280;65532;52.124;5.480;2024-03-02T06:26:38;100060.09;;;5.82;100.00
76637;BME280;65532;52.124;5.480;2024-03-02T06:29:06;100050.03;;;5.77;100.00
76637;BME280;65532;52.124;5.480;2024-03-02T06:31:32;100055.03;;;5.74;100.00
76637;BME280;65532;52.124;5.480;2024-03-02T06:33:59;100053.00;;;5.69;100.00
76637;BME280;65532;52.124;5.480;2024-03-02T06:36:25;100057.53;;;5.68;100.00
76637;BME280;65532;52.124;5.480;2024-03-02T06:38:52;100059.00;;;5.64;100.00
76637;BME280;65532;52.124;5.480;2024-03-02T06:41:18;100062.72;;;5.63;100.00
76637;BME280;65532;52.124;5.480;2024-03-02T06:43:45;100065.84;;;5.60;100.00
76637;BME280;65532;52.124;5.480;2024-03-02T06:46:11;100068.09;;;5.63;100.00
76637;BME280;65532;52.124;5.480;2024-03-02T06:48:41;100065.38;;;5.70;100.00
76637;BME280;65532;52.124;5.480;2024-03-02T06:51:07;100067.41;;;5.75;100.00
76637;BME280;65532;52.124;5.480;2024-03-02T06:53:34;100063.00;;;5.80;100.00
76637;BME280;65532;52.124;5.480;2024-03-02T06:56:00;100062.16;;;5.86;100.00
76637;BME280;65532;52.124;5.480;2024-03-02T06:58:27;100066.88;;;5.91;100.00
76637;BME280;65532;52.124;5.480;2024-03-02T07:00:53;100059.88;;;5.90;100.00
76637;BME280;65532;52.124;5.480;2024-03-02T07:03:20;100059.88;;;5.90;100.00
76637;BME280;65532;52.124;5.480;2024-03-02T07:05:47;100060.69;;;5.90;100.00
76637;BME280;65532;52.124;5.480;2024-03-02T07:08:14;100063.16;;;5.92;100.00
76637;BME280;65532;52.124;5.480;2024-03-02T07:10:41;100062.72;;;5.95;100.00
76637;BME280;65532;52.124;5.480;2024-03-02T07:13:07;100062.72;;;5.95;100.00
76637;BME280;65532;52.124;5.480;2024-03-02T07:15:34;100066.00;;;5.97;100.00
76637;BME280;65532;52.124;5.480;2024-03-02T07:18:16;100072.16;;;6.04;100.00
76637;BME280;65532;52.124;5.480;2024-03-02T07:20:42;100064.69;;;6.06;100.00
76637;BME280;65532;52.124;5.480;2024-03-02T07:23:09;100071.41;;;6.15;100.00
76637;BME280;65532;52.124;5.480;2024-03-02T07:25:35;100071.13;;;6.23;100.00
76637;BME280;65532;52.124;5.480;2024-03-02T07:28:05;100075.78;;;6.35;100.00
76637;BME280;65532;52.124;5.480;2024-03-02T07:30:33;100062.97;;;7.87;100.00
76637;BME280;65532;52.124;5.480;2024-03-02T07:33:00;100068.00;;;9.79;100.00
76637;BME280;65532;52.124;5.480;2024-03-02T07:35:26;100065.28;;;11.38;100.00
76637;BME280;65532;52.124;5.480;2024-03-02T07:37:54;100070.84;;;12.60;90.58
76637;BME280;65532;52.124;5.480;2024-03-02T07:40:21;100068.09;;;13.12;84.34
76637;BME280;65532;52.124;5.480;2024-03-02T07:42:48;100075.59;;;13.83;78.84
76637;BME280;65532;52.124;5.480;2024-03-02T07:45:15;100080.44;;;14.62;73.81
76637;BME280;65532;52.124;5.480;2024-03-02T07:47:41;100085.00;;;14.82;69.40
76637;BME280;65532;52.124;5.480;2024-03-02T07:50:08;100084.81;;;14.48;69.61
76637;BME280;65532;52.124;5.480;2024-03-02T07:52:35;100091.91;;;14.49;69.84
76637;BME280;65532;52.124;5.480;2024-03-02T07:55:01;100100.63;;;14.46;68.42
76637;BME280;65532;52.124;5.480;2024-03-02T07:57:28;100091.66;;;14.25;66.01
76637;BME280;65532;52.124;5.480;2024-03-02T07:59:55;100094.41;;;13.02;75.63
76637;BME280;65532;52.124;5.480;2024-03-02T08:02:21;100091.47;;;13.13;72.80
76637;BME280;65532;52.124;5.480;2024-03-02T08:04:48;100098.97;;;12.81;70.78
76637;BME280;65532;52.124;5.480;2024-03-02T08:07:14;100101.13;;;12.32;71.24
76637;BME280;65532;52.124;5.480;2024-03-02T08:09:41;100104.22;;;12.13;71.73
76637;BME280;65532;52.124;5.480;2024-03-02T08:12:08;100107.13;;;11.75;71.88
76637;BME280;65532;52.124;5.480;2024-03-02T08:14:35;100109.41;;;11.34;74.43
76637;BME280;65532;52.124;5.480;2024-03-02T08:17:01;100103.31;;;11.22;74.80
76637;BME280;65532;52.124;5.480;2024-03-02T08:19:28;100111.44;;;11.00;75.38
76637;BME280;65532;52.124;5.480;2024-03-02T08:21:55;100114.53;;;10.87;76.17
76637;BME280;65532;52.124;5.480;2024-03-02T08:24:22;100110.94;;;10.59;76.77
76637;BME280;65532;52.124;5.480;2024-03-02T08:26:48;100113.41;;;10.44;77.93
76637;BME280;65532;52.124;5.480;2024-03-02T08:29:15;100111.44;;;10.39;78.86
76637;BME280;65532;52.124;5.480;2024-03-02T08:31:41;100106.34;;;10.60;80.06
76637;BME280;65532;52.124;5.480;2024-03-02T08:34:08;100099.72;;;11.16;79.81
76637;BME280;65532;52.124;5.480;2024-03-02T08:36:35;100106.09;;;12.13;77.59
76637;BME280;65532;52.124;5.480;2024-03-02T08:39:02;100104.94;;;12.88;74.21
76637;BME280;65532;52.124;5.480;2024-03-02T08:41:29;100103.34;;;13.85;70.73
76637;BME280;65532;52.124;5.480;2024-03-02T08:43:56;100110.41;;;13.81;66.41
76637;BME280;65532;52.124;5.480;2024-03-02T08:46:22;100112.91;;;14.08;66.92
76637;BME280;65532;52.124;5.480;2024-03-02T08:48:49;100117.22;;;14.19;64.83
76637;BME280;65532;52.124;5.480;2024-03-02T08:51:15;100113.31;;;13.39;64.05
76637;BME280;65532;52.124;5.480;2024-03-02T08:53:42;100118.00;;;12.44;66.97
76637;BME280;65532;52.124;5.480;2024-03-02T08:56:10;100114.47;;;12.06;69.68
76637;BME280;65532;52.124;5.480;2024-03-02T08:58:37;100095.88;;;11.88;69.81
76637;BME280;65532;52.124;5.480;2024-03-02T09:01:03;100110.91;;;11.47;72.97
76637;BME280;65532;52.124;5.480;2024-03-02T09:03:30;100117.03;;;11.37;73.56
76637;BME280;65532;52.124;5.480;2024-03-02T09:05:59;100115.25;;;11.21;73.54
76637;BME280;65532;52.124;5.480;2024-03-02T09:08:26;100119.19;;;11.13;73.68
76637;BME280;65532;52.124;5.480;2024-03-02T09:10:52;100115.94;;;11.11;73.63
76637;BME280;65532;52.124;5.480;2024-03-02T09:13:19;100123.00;;;10.90;74.84
76637;BME280;65532;52.124;5.480;2024-03-02T09:15:46;100112.22;;;10.95;75.13
76637;BME280;65532;52.124;5.480;2024-03-02T09:18:12;100121.97;;;10.96;74.59
76637;BME280;65532;52.124;5.480;2024-03-02T09:20:39;100112.78;;;10.97;74.43
76637;BME280;65532;52.124;5.480;2024-03-02T09:23:06;100108.22;;;10.81;75.99
76637;BME280;65532;52.124;5.480;2024-03-02T09:25:32;100125.84;;;10.84;75.27
76637;BME280;65532;52.124;5.480;2024-03-02T09:27:59;100120.84;;;10.92;75.65
76637;BME280;65532;52.124;5.480;2024-03-02T09:30:25;100130.41;;;11.00;74.77
76637;BME280;65532;52.124;5.480;2024-03-02T09:32:52;100128.50;;;11.00;73.90
76637;BME280;65532;52.124;5.480;2024-03-02T09:35:38;100123.34;;;10.77;75.31
76637;BME280;65532;52.124;5.480;2024-03-02T09:38:05;100120.03;;;10.92;73.82
76637;BME280;65532;52.124;5.480;2024-03-02T09:40:32;100121.66;;;11.15;73.26
76637;BME280;65532;52.124;5.480;2024-03-02T09:42:58;100128.09;;;11.08;73.97
76637;BME280;65532;52.124;5.480;2024-03-02T09:45:26;100133.63;;;10.97;74.82
76637;BME280;65532;52.124;5.480;2024-03-02T09:47:53;100132.50;;;11.15;73.71
76637;BME280;65532;52.124;5.480;2024-03-02T09:50:19;100128.13;;;11.14;71.79
76637;BME280;65532;52.124;5.480;2024-03-02T09:52:49;100127.19;;;11.03;71.25
76637;BME280;65532;52.124;5.480;2024-03-02T09:55:17;100128.50;;;11.00;71.67
76637;BME280;65532;52.124;5.480;2024-03-02T09:57:45;100123.66;;;11.24;71.78
76637;BME280;65532;52.124;5.480;2024-03-02T10:00:12;100129.53;;;11.38;70.42
76637;BME280;65532;52.124;5.480;2024-03-02T10:02:42;100134.78;;;11.23;71.67
76637;BME280;65532;52.124;5.480;2024-03-02T10:05:09;100131.63;;;11.09;73.14
76637;BME280;65532;52.124;5.480;2024-03-02T10:07:35;100133.75;;;11.07;71.51
76637;BME280;65532;52.124;5.480;2024-03-02T10:10:15;100130.50;;;11.05;71.06
76637;BME280;65532;52.124;5.480;2024-03-02T10:12:42;100124.91;;;11.17;69.48
76637;BME280;65532;52.124;5.480;2024-03-02T10:15:08;100127.19;;;11.25;70.11
76637;BME280;65532;52.124;5.480;2024-03-02T10:17:36;100130.09;;;11.18;68.99
76637;BME280;65532;52.124;5.480;2024-03-02T10:20:22;100133.44;;;11.25;69.22
76637;BME280;65532;52.124;5.480;2024-03-02T10:22:50;100123.53;;;11.14;71.02
76637;BME280;65532;52.124;5.480;2024-03-02T10:25:32;100123.22;;;11.10;70.59
76637;BME280;65532;52.124;5.480;2024-03-02T10:28:02;100121.09;;;11.13;70.99
76637;BME280;65532;52.124;5.480;2024-03-02T10:30:34;100120.72;;;11.26;70.12
76637;BME280;65532;52.124;5.480;2024-03-02T10:33:02;100122.78;;;11.40;69.54
76637;BME280;65532;52.124;5.480;2024-03-02T10:35:29;100119.81;;;11.42;69.80
76637;BME280;65532;52.124;5.480;2024-03-02T10:37:59;100117.88;;;11.37;70.33
76637;BME280;65532;52.124;5.480;2024-03-02T10:40:27;100109.94;;;11.09;71.27
76637;BME280;65532;52.124;5.480;2024-03-02T10:42:54;100117.00;;;11.10;70.16
76637;BME280;65532;52.124;5.480;2024-03-02T10:45:21;100112.13;;;11.34;69.20
76637;BME280;65532;52.124;5.480;2024-03-02T10:47:51;100089.63;;;11.60;69.02
76637;BME280;65532;52.124;5.480;2024-03-02T10:50:18;100091.97;;;11.52;68.81
76637;BME280;65532;52.124;5.480;2024-03-02T10:52:45;100088.81;;;11.60;66.76
76637;BME280;65532;52.124;5.480;2024-03-02T10:55:11;100087.06;;;11.76;66.23
76637;BME280;65532;52.124;5.480;2024-03-02T10:57:43;100088.03;;;11.91;66.31
76637;BME280;65532;52.124;5.480;2024-03-02T11:00:12;100076.09;;;11.65;67.14
76637;BME280;65532;52.124;5.480;2024-03-02T11:02:42;100086.47;;;11.68;68.07
76637;BME280;65532;52.124;5.480;2024-03-02T11:05:14;100080.94;;;11.85;67.26
76637;BME280;65532;52.124;5.480;2024-03-02T11:07:46;100083.69;;;11.63;68.17
76637;BME280;65532;52.124;5.480;2024-03-02T11:10:13;100087.41;;;11.52;67.05
76637;BME280;65532;52.124;5.480;2024-03-02T11:12:48;100085.88;;;11.66;65.66
76637;BME280;65532;52.124;5.480;2024-03-02T11:15:18;100093.53;;;11.69;65.50
76637;BME280;65532;52.124;5.480;2024-03-02T11:17:47;100084.91;;;11.51;66.69
76637;BME280;65532;52.124;5.480;2024-03-02T11:20:15;100087.47;;;11.62;66.94
76637;BME280;65532;52.124;5.480;2024-03-02T11:22:42;100082.34;;;11.66;65.93
76637;BME280;65532;52.124;5.480;2024-03-02T11:25:23;100093.72;;;11.90;64.07
76637;BME280;65532;52.124;5.480;2024-03-02T11:33:12;100087.34;;;12.06;63.90
76637;BME280;65532;52.124;5.480;2024-03-02T11:35:44;100085.69;;;12.00;64.23
76637;BME280;65532;52.124;5.480;2024-03-02T11:38:14;100082.47;;;12.08;63.78
76637;BME280;65532;52.124;5.480;2024-03-02T11:40:41;100079.84;;;12.18;64.67
76637;BME280;65532;52.124;5.480;2024-03-02T11:43:08;100067.19;;;11.97;64.06
76637;BME280;65532;52.124;5.480;2024-03-02T11:45:36;100073.66;;;11.91;64.87
76637;BME280;65532;52.124;5.480;2024-03-02T11:48:08;100061.03;;;12.07;63.23
76637;BME280;65532;52.124;5.480;2024-03-02T11:50:47;100067.97;;;12.29;63.08
76637;BME280;65532;52.124;5.480;2024-03-02T11:53:15;100060.53;;;12.57;63.79
76637;BME280;65532;52.124;5.480;2024-03-02T11:55:42;100068.06;;;12.45;63.87
76637;BME280;65532;52.124;5.480;2024-03-02T11:58:15;100057.75;;;12.05;64.17
76637;BME280;65532;52.124;5.480;2024-03-02T12:00:51;100065.63;;;12.06;64.85
76637;BME280;65532;52.124;5.480;2024-03-02T12:03:20;100060.75;;;12.08;64.95
76637;BME280;65532;52.124;5.480;2024-03-02T12:05:49;100062.41;;;12.09;63.97
76637;BME280;65532;52.124;5.480;2024-03-02T12:08:17;100055.38;;;12.13;64.54
76637;BME280;65532;52.124;5.480;2024-03-02T12:10:55;100054.69;;;12.33;64.72
76637;BME280;65532;52.124;5.480;2024-03-02T12:13:22;100058.25;;;12.39;63.79
76637;BME280;65532;52.124;5.480;2024-03-02T12:15:53;100051.34;;;12.16;65.12
76637;BME280;65532;52.124;5.480;2024-03-02T12:18:20;100034.53;;;12.19;65.09
76637;BME280;65532;52.124;5.480;2024-03-02T12:20:48;100036.34;;;12.08;65.35
76637;BME280;65532;52.124;5.480;2024-03-02T12:23:15;100030.50;;;12.26;64.83
76637;BME280;65532;52.124;5.480;2024-03-02T12:25:43;100038.09;;;12.29;65.15
76637;BME280;65532;52.124;5.480;2024-03-02T12:28:10;100040.63;;;12.41;65.01
76637;BME280;65532;52.124;5.480;2024-03-02T12:30:37;100030.63;;;12.52;64.77
76637;BME280;65532;52.124;5.480;2024-03-02T12:33:03;100037.63;;;12.43;65.47
76637;BME280;65532;52.124;5.480;2024-03-02T12:35:31;100024.69;;;12.60;65.15
76637;BME280;65532;52.124;5.480;2024-03-02T12:37:57;100026.09;;;12.73;64.87
76637;BME280;65532;52.124;5.480;2024-03-02T12:40:24;100025.34;;;12.87;63.44
76637;BME280;65532;52.124;5.480;2024-03-02T12:42:51;100039.53;;;13.00;62.29
76637;BME280;65532;52.124;5.480;2024-03-02T12:45:18;100023.22;;;13.05;61.91
76637;BME280;65532;52.124;5.480;2024-03-02T12:47:52;100015.53;;;12.76;62.58
76637;BME280;65532;52.124;5.480;2024-03-02T12:50:19;100009.69;;;12.42;62.79
76637;BME280;65532;52.124;5.480;2024-03-02T12:52:55;100009.31;;;12.28;63.49
76637;BME280;65532;52.124;5.480;2024-03-02T12:55:22;100012.63;;;11.93;62.77
76637;BME280;65532;52.124;5.480;2024-03-02T12:57:51;100008.41;;;11.76;63.36
76637;BME280;65532;52.124;5.480;2024-03-02T13:00:19;100014.50;;;11.88;63.98
76637;BME280;65532;52.124;5.480;2024-03-02T13:02:47;100000.81;;;12.15;62.92
76637;BME280;65532;52.124;5.480;2024-03-02T13:05:14;100003.25;;;12.11;62.96
76637;BME280;65532;52.124;5.480;2024-03-02T13:07:41;100002.59;;;11.94;63.14
76637;BME280;65532;52.124;5.480;2024-03-02T13:10:07;99996.72;;;12.02;63.68